Terminal Aerodrome Forecast
Issued by NWS

Home | Current Version | Previous Version | Text Only | Print | Product List | Glossary On
Versions: 1 2 3 4 5 6 7 8 9 10 11 12 13 14 15 16
000
FTUS44 KLIX 260500
TAFGPT
TAF
KGPT 260530Z 2606/2706 VRB03KT P6SM FEW030 SCT250
      TEMPO 2609/2612 5SM BR SCT010
     FM261500 20007KT P6SM SCT040=

USA.gov is the U.S. government's official web portal to all federal, state and local government web resources and services.